createdAt,value
2018-06-09T00:00:05.810Z,26.20
2018-06-09T00:05:01.901Z,26.20
2018-06-09T00:07:30.030Z,26.20
2018-06-09T00:09:58.156Z,26.10
2018-06-09T00:12:26.312Z,26.10
2018-06-09T00:14:54.447Z,26.10
2018-06-09T00:17:22.902Z,26.10
2018-06-09T00:19:51.041Z,26.20
2018-06-09T00:22:19.192Z,26.20
2018-06-09T00:24:47.320Z,26.00
2018-06-09T00:27:15.507Z,26.10
2018-06-09T00:29:43.638Z,26.10
2018-06-09T00:32:11.764Z,26.10
2018-06-09T00:37:08.515Z,26.00
2018-06-09T00:42:04.579Z,26.00
2018-06-09T00:44:32.716Z,25.90
2018-06-09T00:47:00.918Z,25.90
2018-06-09T00:51:56.983Z,25.70
2018-06-09T00:54:25.119Z,25.70
2018-06-09T00:59:21.144Z,25.60
2018-06-09T01:01:49.296Z,25.60
2018-06-09T01:04:17.434Z,25.60
2018-06-09T01:06:45.560Z,25.60
2018-06-09T01:09:13.770Z,25.60
2018-06-09T01:11:41.947Z,25.70
2018-06-09T01:14:10.100Z,25.60
2018-06-09T01:16:38.227Z,25.70
2018-06-09T01:19:07.261Z,25.70
2018-06-09T01:21:35.401Z,25.70
2018-06-09T01:24:03.535Z,25.60
2018-06-09T01:26:32.348Z,25.70
2018-06-09T01:29:00.495Z,25.70
2018-06-09T01:31:28.640Z,25.60
2018-06-09T01:33:56.817Z,25.60
2018-06-09T01:36:24.949Z,25.60
2018-06-09T01:38:53.094Z,25.60
2018-06-09T01:41:21.232Z,25.60
2018-06-09T01:43:49.380Z,25.50
2018-06-09T01:46:17.544Z,25.50
2018-06-09T01:48:45.678Z,25.50
2018-06-09T01:51:13.806Z,25.40
2018-06-09T01:53:41.947Z,25.40
2018-06-09T01:56:10.081Z,25.40
2018-06-09T01:58:38.226Z,25.40
2018-06-09T02:01:06.365Z,25.30
2018-06-09T02:03:34.558Z,25.20
2018-06-09T02:06:02.690Z,25.20
2018-06-09T02:08:30.819Z,25.20
2018-06-09T02:10:59.288Z,25.20
2018-06-09T02:13:27.459Z,25.20
2018-06-09T02:15:55.588Z,25.20
2018-06-09T02:18:23.727Z,25.10
2018-06-09T02:20:51.904Z,25.10
2018-06-09T02:23:20.123Z,25.10
2018-06-09T02:25:48.263Z,25.10
2018-06-09T02:28:17.121Z,25.00
2018-06-09T02:30:45.271Z,25.00
2018-06-09T02:33:13.598Z,25.00
2018-06-09T02:35:42.773Z,24.90
2018-06-09T02:38:16.762Z,24.90
2018-06-09T02:40:44.900Z,24.80
2018-06-09T02:43:12.990Z,24.80
2018-06-09T02:45:41.091Z,24.70
2018-06-09T02:48:09.191Z,24.70
2018-06-09T02:50:37.321Z,24.70
2018-06-09T02:53:05.963Z,24.70
2018-06-09T02:55:34.047Z,24.70
2018-06-09T02:58:02.117Z,24.70
2018-06-09T03:00:30.213Z,24.70
2018-06-09T03:02:58.336Z,24.70
2018-06-09T03:05:26.439Z,24.60
2018-06-09T03:07:54.535Z,24.50
2018-06-09T03:10:22.629Z,24.50
2018-06-09T03:12:51.327Z,24.50
2018-06-09T03:15:19.407Z,24.50
2018-06-09T03:17:47.524Z,24.50
2018-06-09T03:20:15.603Z,24.50
2018-06-09T03:25:11.610Z,24.40
2018-06-09T03:27:39.691Z,24.30
2018-06-09T03:30:07.847Z,24.30
2018-06-09T03:32:35.966Z,24.30
2018-06-09T03:35:04.066Z,24.30
2018-06-09T03:37:32.520Z,24.30
2018-06-09T03:40:00.627Z,24.30
2018-06-09T03:42:28.781Z,24.40
2018-06-09T03:44:57.373Z,24.30
2018-06-09T03:47:25.535Z,24.40
2018-06-09T03:49:53.683Z,24.40
2018-06-09T03:52:21.820Z,24.40
2018-06-09T03:54:49.943Z,24.30
2018-06-09T03:57:18.102Z,24.30
2018-06-09T03:59:47.517Z,24.30
2018-06-09T04:02:15.662Z,24.40
2018-06-09T04:04:43.774Z,24.40
2018-06-09T04:07:11.925Z,24.40
2018-06-09T04:09:40.102Z,24.50
2018-06-09T04:12:08.271Z,24.40
2018-06-09T04:14:36.392Z,24.30
2018-06-09T04:17:04.680Z,24.30
2018-06-09T04:19:32.800Z,24.20
2018-06-09T04:22:00.951Z,24.40
2018-06-09T04:24:29.127Z,24.40
2018-06-09T04:26:57.267Z,24.40
2018-06-09T04:29:25.404Z,24.40
2018-06-09T04:31:53.571Z,24.50
2018-06-09T04:34:21.818Z,24.50
2018-06-09T04:36:49.958Z,24.60
2018-06-09T04:39:18.103Z,24.70
2018-06-09T04:41:46.205Z,24.70
2018-06-09T04:44:14.315Z,24.80
2018-06-09T04:46:42.484Z,24.80
2018-06-09T04:49:10.567Z,24.80
2018-06-09T04:51:38.660Z,24.80
2018-06-09T04:54:06.766Z,24.60
2018-06-09T04:56:34.857Z,24.70
2018-06-09T04:59:02.951Z,24.80
2018-06-09T05:01:31.030Z,24.90
2018-06-09T05:03:59.112Z,25.00
2018-06-09T05:06:27.220Z,25.10
2018-06-09T05:08:55.321Z,25.20
2018-06-09T05:11:23.428Z,25.20
2018-06-09T05:13:51.528Z,25.20
2018-06-09T05:16:19.677Z,25.30
2018-06-09T05:18:47.781Z,25.30
2018-06-09T05:21:15.872Z,25.50
2018-06-09T05:26:12.896Z,25.70
2018-06-09T05:28:40.990Z,25.60
2018-06-09T05:31:09.071Z,25.70
2018-06-09T05:33:37.159Z,25.80
2018-06-09T05:36:05.244Z,25.70
2018-06-09T05:38:33.339Z,25.70
2018-06-09T05:41:01.516Z,25.80
2018-06-09T05:43:29.622Z,25.90
2018-06-09T05:45:57.712Z,25.90
2018-06-09T05:50:53.768Z,26.10
2018-06-09T05:53:22.087Z,26.20
2018-06-09T05:55:50.157Z,26.40
2018-06-09T05:58:18.243Z,26.60
2018-06-09T06:00:46.335Z,26.90
2018-06-09T06:03:14.424Z,27.00
2018-06-09T06:05:42.547Z,27.20
2018-06-09T06:08:10.640Z,27.30
2018-06-09T06:10:38.740Z,27.00
2018-06-09T06:13:06.854Z,26.80
2018-06-09T06:15:34.940Z,27.00
2018-06-09T06:18:03.046Z,27.30
2018-06-09T06:20:31.128Z,27.40
2018-06-09T06:22:59.217Z,27.60
2018-06-09T06:25:27.352Z,27.80
2018-06-09T06:27:55.494Z,27.70
2018-06-09T06:30:23.911Z,27.50
2018-06-09T06:32:52.064Z,27.80
2018-06-09T06:35:20.188Z,27.90
2018-06-09T06:37:48.340Z,28.10
2018-06-09T06:40:17.486Z,28.20
2018-06-09T06:42:45.595Z,28.10
2018-06-09T06:45:13.696Z,27.80
2018-06-09T06:47:41.787Z,28.20
2018-06-09T06:50:09.881Z,28.30
2018-06-09T06:52:37.999Z,28.20
2018-06-09T06:55:06.248Z,28.30
2018-06-09T06:57:34.344Z,28.30
2018-06-09T07:00:02.461Z,28.60
2018-06-09T07:02:30.592Z,28.90
2018-06-09T07:04:58.675Z,29.40
2018-06-09T07:07:26.772Z,30.10
2018-06-09T07:09:54.856Z,30.80
2018-06-09T07:12:23.042Z,31.70
2018-06-09T07:14:51.752Z,32.90
2018-06-09T07:17:20.090Z,33.80
2018-06-09T07:19:48.167Z,34.50
2018-06-09T07:22:16.362Z,35.30
2018-06-09T07:24:44.434Z,35.50
2018-06-09T07:27:12.525Z,35.90
2018-06-09T07:29:40.624Z,36.00
2018-06-09T07:32:08.711Z,36.00
2018-06-09T07:34:36.848Z,36.70
2018-06-09T07:37:05.959Z,36.20
2018-06-09T07:39:34.040Z,36.30
2018-06-09T07:42:02.181Z,36.20
2018-06-09T07:44:30.308Z,36.50
2018-06-09T07:46:58.472Z,37.30
2018-06-09T07:51:54.581Z,38.10
2018-06-09T07:54:22.761Z,38.50
2018-06-09T07:56:50.900Z,38.50
2018-06-09T07:59:19.036Z,38.50
2018-06-09T08:18:07.278Z,32.80
2018-06-09T08:20:35.421Z,33.40
2018-06-09T08:23:03.592Z,34.20
2018-06-09T08:25:32.313Z,34.80
2018-06-09T08:28:01.087Z,35.00
2018-06-09T08:30:29.232Z,34.80
2018-06-09T08:32:57.371Z,34.70
2018-06-09T08:35:26.402Z,34.50
2018-06-09T08:37:54.523Z,34.20
2018-06-09T08:40:22.732Z,33.80
2018-06-09T08:42:50.888Z,33.50
2018-06-09T08:45:19.021Z,33.50
2018-06-09T08:47:47.147Z,33.30
2018-06-09T08:50:15.287Z,33.20
2018-06-09T08:52:43.415Z,33.20
2018-06-09T08:55:11.557Z,33.10
2018-06-09T08:57:39.679Z,33.20
2018-06-09T09:00:08.064Z,33.30
2018-06-09T09:02:36.213Z,33.30
2018-06-09T09:05:04.351Z,33.20
2018-06-09T09:07:33.287Z,33.20
2018-06-09T09:10:01.476Z,33.30
2018-06-09T09:12:29.618Z,33.40
2018-06-09T09:14:57.762Z,33.30
2018-06-09T09:17:26.253Z,33.30
2018-06-09T09:19:54.416Z,33.50
2018-06-09T09:24:50.529Z,33.60
2018-06-09T09:27:18.675Z,33.30
2018-06-09T09:29:46.831Z,33.30
2018-06-09T09:32:15.045Z,33.10
2018-06-09T09:34:43.124Z,33.30
2018-06-09T09:37:11.300Z,33.40
2018-06-09T09:39:39.465Z,33.50
2018-06-09T09:42:07.563Z,33.80
2018-06-09T09:44:35.665Z,34.10
2018-06-09T09:47:03.788Z,34.50
2018-06-09T09:49:31.876Z,34.80
2018-06-09T09:51:59.999Z,34.80
2018-06-09T09:54:28.137Z,34.60
2018-06-09T09:56:56.288Z,34.70
2018-06-09T09:59:24.463Z,34.40
2018-06-09T10:01:52.637Z,34.50
2018-06-09T10:04:20.735Z,34.50
2018-06-09T10:06:48.812Z,34.60
2018-06-09T10:09:16.920Z,34.70
2018-06-09T10:11:45.041Z,34.70
2018-06-09T10:14:13.255Z,34.70
2018-06-09T10:16:41.457Z,34.70
2018-06-09T10:19:09.581Z,34.80
2018-06-09T10:21:37.638Z,34.80
2018-06-09T10:24:05.757Z,34.90
2018-06-09T10:26:33.870Z,35.10
2018-06-09T10:29:01.936Z,35.00
2018-06-09T10:31:30.023Z,35.20
2018-06-09T10:33:58.109Z,35.40
2018-06-09T10:36:26.205Z,35.40
2018-06-09T10:38:54.291Z,35.50
2018-06-09T10:41:22.525Z,35.70
2018-06-09T10:43:50.660Z,35.90
2018-06-09T10:46:18.811Z,36.20
2018-06-09T10:48:46.947Z,36.20
2018-06-09T10:51:15.068Z,36.40
2018-06-09T10:53:43.240Z,36.60
2018-06-09T10:56:11.384Z,36.70
2018-06-09T11:01:07.424Z,37.20
2018-06-09T11:03:35.580Z,37.20
2018-06-09T11:06:03.724Z,37.00
2018-06-09T11:08:31.846Z,37.10
2018-06-09T11:10:59.969Z,37.00
2018-06-09T11:13:28.107Z,37.00
2018-06-09T11:15:56.232Z,37.10
2018-06-09T11:18:24.400Z,37.20
2018-06-09T11:20:52.594Z,37.30
2018-06-09T11:23:20.731Z,37.30
2018-06-09T11:25:48.865Z,37.30
2018-06-09T11:28:16.999Z,37.20
2018-06-09T11:30:45.164Z,37.10
2018-06-09T11:33:13.305Z,37.20
2018-06-09T11:35:41.649Z,37.20
2018-06-09T11:38:09.779Z,37.40
2018-06-09T11:40:37.941Z,37.50
2018-06-09T11:43:06.052Z,37.40
2018-06-09T11:45:34.161Z,37.60
2018-06-09T11:48:02.287Z,38.00
2018-06-09T11:50:30.363Z,37.90
2018-06-09T11:52:58.454Z,37.90
2018-06-09T11:55:26.614Z,38.00
2018-06-09T11:57:54.714Z,38.20
2018-06-09T12:00:22.821Z,38.20
2018-06-09T12:02:50.896Z,38.30
2018-06-09T12:05:19.086Z,38.60
2018-06-09T12:07:47.188Z,38.70
2018-06-09T12:10:15.264Z,38.70
2018-06-09T12:12:43.348Z,38.60
2018-06-09T12:15:11.432Z,38.80
2018-06-09T12:17:40.472Z,38.70
2018-06-09T12:20:08.591Z,38.70
2018-06-09T12:22:36.679Z,38.70
2018-06-09T12:25:04.824Z,39.00
2018-06-09T12:27:33.655Z,38.70
2018-06-09T12:30:01.740Z,38.60
2018-06-09T12:32:30.449Z,38.80
2018-06-09T12:34:58.487Z,39.00
2018-06-09T12:39:54.455Z,38.30
2018-06-09T12:42:22.701Z,38.50
2018-06-09T12:44:50.843Z,38.80
2018-06-09T12:47:18.980Z,38.90
2018-06-09T12:49:47.141Z,39.00
2018-06-09T12:52:15.312Z,39.00
2018-06-09T12:54:43.607Z,39.10
2018-06-09T12:57:11.704Z,38.80
2018-06-09T12:59:39.835Z,38.60
2018-06-09T13:02:07.971Z,38.80
2018-06-09T13:04:36.157Z,39.00
2018-06-09T13:09:32.204Z,39.20
2018-06-09T13:12:00.345Z,39.20
2018-06-09T13:14:28.493Z,39.20
2018-06-09T13:16:56.762Z,39.40
2018-06-09T13:19:24.891Z,39.40
2018-06-09T13:21:53.031Z,39.30
2018-06-09T13:24:21.186Z,39.00
2018-06-09T13:26:49.307Z,39.00
2018-06-09T13:29:17.456Z,39.00
2018-06-09T13:31:45.584Z,38.90
2018-06-09T13:34:13.764Z,38.90
2018-06-09T13:36:41.911Z,38.70
2018-06-09T13:41:03.240Z,39.20
2018-06-09T13:43:31.334Z,38.90
2018-06-09T13:45:59.427Z,39.00
2018-06-09T13:48:27.575Z,39.00
2018-06-09T13:50:55.678Z,39.10
2018-06-09T13:53:23.833Z,39.20
2018-06-09T13:55:51.916Z,39.00
2018-06-09T13:58:20.005Z,38.90
2018-06-09T14:00:48.086Z,39.00
2018-06-09T14:03:16.238Z,39.10
2018-06-09T14:05:44.321Z,39.10
2018-06-09T14:08:12.415Z,39.10
2018-06-09T14:10:40.513Z,39.00
2018-06-09T14:13:08.602Z,38.40
2018-06-09T14:15:36.702Z,38.10
2018-06-09T14:18:04.826Z,38.10
2018-06-09T14:20:33.969Z,38.00
2018-06-09T14:23:02.037Z,37.60
2018-06-09T14:25:30.149Z,37.70
2018-06-09T14:27:58.317Z,37.70
2018-06-09T14:30:26.411Z,37.80
2018-06-09T14:32:54.536Z,37.80
2018-06-09T14:35:22.628Z,38.00
2018-06-09T14:37:50.746Z,37.90
2018-06-09T14:40:18.839Z,37.80
2018-06-09T14:42:46.927Z,37.70
2018-06-09T14:45:15.020Z,37.60
2018-06-09T14:47:43.111Z,37.80
2018-06-09T14:50:11.203Z,38.00
2018-06-09T14:52:39.322Z,37.90
2018-06-09T14:55:07.396Z,37.60
2018-06-09T14:57:35.519Z,37.80
2018-06-09T15:00:03.708Z,37.90
2018-06-09T15:02:31.881Z,37.90
2018-06-09T15:04:59.920Z,37.90
2018-06-09T15:07:28.023Z,38.00
2018-06-09T15:09:56.100Z,37.80
2018-06-09T15:12:24.196Z,37.60
2018-06-09T15:14:52.328Z,37.60
2018-06-09T15:17:20.422Z,37.40
2018-06-09T15:19:48.530Z,37.40
2018-06-09T15:22:16.623Z,37.40
2018-06-09T15:24:44.772Z,37.40
2018-06-09T15:27:12.875Z,37.40
2018-06-09T15:29:40.955Z,37.30
2018-06-09T15:32:09.075Z,37.20
2018-06-09T15:34:37.164Z,37.20
2018-06-09T15:37:05.293Z,37.00
2018-06-09T15:39:33.986Z,36.90
2018-06-09T15:42:02.168Z,36.70
2018-06-09T15:44:30.372Z,36.80
2018-06-09T15:46:58.505Z,36.80
2018-06-09T15:49:26.631Z,36.80
2018-06-09T15:51:54.777Z,36.80
2018-06-09T15:54:22.924Z,36.80
2018-06-09T15:56:51.089Z,36.80
2018-06-09T15:59:19.317Z,36.60
2018-06-09T16:01:47.564Z,36.50
2018-06-09T16:04:15.701Z,36.30
2018-06-09T16:06:43.855Z,36.40
2018-06-09T16:09:12.161Z,36.40
2018-06-09T16:14:08.068Z,36.10
2018-06-09T16:16:36.212Z,36.30
2018-06-09T16:19:04.363Z,36.40
2018-06-09T16:21:32.484Z,36.40
2018-06-09T16:24:00.647Z,36.40
2018-06-09T16:26:28.997Z,36.50
2018-06-09T16:28:57.174Z,36.50
2018-06-09T16:31:25.311Z,36.50
2018-06-09T16:33:53.439Z,36.40
2018-06-09T16:38:50.423Z,36.50
2018-06-09T16:41:18.543Z,36.40
2018-06-09T16:43:46.673Z,36.50
2018-06-09T16:46:14.812Z,36.40
2018-06-09T16:48:42.946Z,36.40
2018-06-09T16:51:11.885Z,36.40
2018-06-09T16:53:40.024Z,36.20
2018-06-09T16:56:08.177Z,36.20
2018-06-09T16:58:36.392Z,36.20
2018-06-09T17:01:04.693Z,36.20
2018-06-09T17:03:32.798Z,36.30
2018-06-09T17:06:00.903Z,36.30
2018-06-09T17:08:29.029Z,36.30
2018-06-09T17:10:57.124Z,36.30
2018-06-09T17:13:25.198Z,36.30
2018-06-09T17:15:53.307Z,36.20
2018-06-09T17:18:21.397Z,36.20
2018-06-09T17:20:49.525Z,36.20
2018-06-09T17:23:17.676Z,36.00
2018-06-09T17:25:45.764Z,36.00
2018-06-09T17:28:13.850Z,35.90
2018-06-09T17:30:41.940Z,35.90
2018-06-09T17:38:05.913Z,35.80
2018-06-09T17:40:34.287Z,35.70
2018-06-09T17:43:02.660Z,35.60
2018-06-09T17:45:30.762Z,35.50
2018-06-09T17:47:58.867Z,35.40
2018-06-09T17:50:27.016Z,35.40
2018-06-09T17:52:55.295Z,35.30
2018-06-09T17:55:23.969Z,35.20
2018-06-09T17:57:52.094Z,35.00
2018-06-09T18:00:20.243Z,35.00
2018-06-09T18:02:48.300Z,35.00
2018-06-09T18:05:16.760Z,35.00
2018-06-09T18:07:44.839Z,34.90
2018-06-09T18:10:13.707Z,34.80
2018-06-09T18:12:41.771Z,34.70
2018-06-09T18:15:09.859Z,34.70
2018-06-09T18:17:37.939Z,34.60
2018-06-09T18:20:06.068Z,34.60
2018-06-09T18:22:34.354Z,34.50
2018-06-09T18:25:02.434Z,34.50
2018-06-09T18:27:30.752Z,34.30
2018-06-09T18:29:58.884Z,34.20
2018-06-09T18:32:26.984Z,34.20
2018-06-09T18:34:55.083Z,34.20
2018-06-09T18:37:23.172Z,34.20
2018-06-09T18:39:51.277Z,34.10
2018-06-09T18:42:19.469Z,34.00
2018-06-09T18:44:47.560Z,34.00
2018-06-09T18:47:15.652Z,33.90
2018-06-09T18:49:43.780Z,33.80
2018-06-09T18:52:11.847Z,33.80
2018-06-09T18:54:40.000Z,33.70
2018-06-09T18:57:08.082Z,33.70
2018-06-09T18:59:36.143Z,33.60
2018-06-09T19:02:04.246Z,33.60
2018-06-09T19:04:32.420Z,33.50
2018-06-09T19:07:00.513Z,33.50
2018-06-09T19:09:28.599Z,33.30
2018-06-09T19:11:56.695Z,33.30
2018-06-09T19:14:24.771Z,33.30
2018-06-09T19:16:52.851Z,33.20
2018-06-09T19:19:20.939Z,33.20
2018-06-09T19:21:49.058Z,33.20
2018-06-09T19:24:17.846Z,33.10
2018-06-09T19:26:45.915Z,33.00
2018-06-09T19:29:14.240Z,33.00
2018-06-09T19:31:42.345Z,32.90
2018-06-09T19:34:10.593Z,32.90
2018-06-09T19:36:38.694Z,32.90
2018-06-09T19:39:07.871Z,32.70
2018-06-09T19:41:36.356Z,32.70
2018-06-09T19:44:04.533Z,32.60
2018-06-09T19:46:32.667Z,32.40
2018-06-09T19:49:00.800Z,32.40
2018-06-09T19:51:28.919Z,32.30
2018-06-09T19:53:57.061Z,32.10
2018-06-09T19:56:25.193Z,31.90
2018-06-09T19:58:53.359Z,31.80
2018-06-09T20:01:21.556Z,31.70
2018-06-09T20:03:49.711Z,31.60
2018-06-09T20:06:17.867Z,31.50
2018-06-09T20:08:46.024Z,31.40
